Dubois, Wyoming
Current Conditions -  °F | °C
As of 3:16 PM on Tuesday 21 Oct 2014 (Local Time) from KAJL Reporting Station
Moderate Snow Moderate Snow  
Wind Chill: 19°   Ceiling: 200
Heat Index: 31°   Visibility: 0mi
Dew Point: 31°   Wind: 22mph
Humidity: 100%   Direction: 260°W
Pressure: 30.04"   Gusts: 29mph
Location:  43.53°N, 109.63°W
Report Text: KAJL 212116Z AUTO 26019G25KT M1/4SM -VCTSSN OVC002 00/00 A3004 RMK AO2 T10031003
Loading
Personal Weather Stations






























Interactive Weather Map
Tropical Storm Tracking
New forecast layout! Learn more

10-Day Weather Forecast

Advertisements
Track Severe Weather on mobile